North Grosvendale, Connecticut
Current Conditions -  °F | °C
As of 11:35 PM on Wednesday 22 Oct 2014 (Local Time) from KORH Reporting Station
Thunderstorm Thunderstorm  
Wind Chill: 38°   Ceiling: 600
Heat Index: 45°   Visibility: 3mi
Dew Point: 44°   Wind: 15mph
Humidity: 97%   Direction: 40°NE
Pressure: 29.83"   Gusts: 25mph
Location:  41.987°N, 71.9027°W
Report Text: KORH 230335Z AUTO 04013G22KT 3SM VCTS +RA BR BKN006 OVC011 07/07 A2983 RMK AO2 PK WND 04032/0302 LTG DSNT NW P0010 T00720067
Loading
Personal Weather Stations






























Interactive Weather Map
Tropical Storm Tracking
New forecast layout! Learn more

10-Day Weather Forecast

Advertisements
Track Severe Weather on mobile